Terminal Aerodrome Forecast
Issued by NWS Twin Cities, MN

Home | Current Version | Previous Version | Text Only | Print | Product List | Glossary Off
Versions: 1 2 3 4 5 6 7 8 9 10 11 12 13 14 15

861
FTUS43 KMPX 190520
TAFEAU
TAF
KEAU 190520Z 1906/2006 27006KT P6SM SKC
     FM191200 00000KT P6SM SKC
     FM191800 20006KT P6SM SKC
     FM200000 17005KT P6SM FEW250
     FM200400 17005KT P6SM SKC WS020/21040KT=

USA.gov is the U.S. government's official web portal to all federal, state and local government web resources and services.